createdAt,value
2023-02-17T00:01:18.860Z,9.80
2023-02-17T00:03:48.302Z,9.90
2023-02-17T00:06:16.368Z,9.90
2023-02-17T00:08:43.599Z,9.90
2023-02-17T00:11:10.495Z,9.90
2023-02-17T00:13:37.285Z,9.90
2023-02-17T00:16:09.669Z,9.80
2023-02-17T00:18:36.851Z,9.80
2023-02-17T00:21:25.313Z,9.80
2023-02-17T00:23:52.778Z,9.90
2023-02-17T00:26:21.106Z,9.90
2023-02-17T00:28:49.147Z,9.90
2023-02-17T00:31:19.787Z,9.90
2023-02-17T00:33:47.212Z,10.00
2023-02-17T00:36:19.843Z,9.90
2023-02-17T00:38:50.755Z,9.90
2023-02-17T00:41:19.052Z,9.90
2023-02-17T00:43:46.314Z,9.90
2023-02-17T00:46:14.148Z,9.90
2023-02-17T00:48:41.393Z,9.90
2023-02-17T00:51:08.732Z,9.90
2023-02-17T00:53:36.078Z,10.00
2023-02-17T00:56:03.069Z,10.00
2023-02-17T00:58:30.083Z,9.90
2023-02-17T01:00:57.885Z,9.90
2023-02-17T01:03:25.895Z,9.70
2023-02-17T01:05:54.528Z,9.70
2023-02-17T01:08:22.706Z,9.70
2023-02-17T01:10:51.494Z,9.70
2023-02-17T01:13:19.136Z,9.80
2023-02-17T01:15:48.990Z,9.70
2023-02-17T01:18:17.219Z,9.70
2023-02-17T01:20:44.274Z,9.70
2023-02-17T01:23:12.653Z,9.70
2023-02-17T01:25:41.271Z,9.70
2023-02-17T01:28:12.071Z,9.60
2023-02-17T01:30:40.165Z,9.60
2023-02-17T01:33:06.890Z,9.70
2023-02-17T01:35:34.775Z,9.70
2023-02-17T01:38:01.484Z,9.70
2023-02-17T01:40:28.255Z,9.70
2023-02-17T01:42:57.285Z,9.70
2023-02-17T01:45:32.267Z,9.70
2023-02-17T01:48:01.734Z,9.80
2023-02-17T01:50:34.310Z,9.70
2023-02-17T01:53:04.079Z,9.70
2023-02-17T01:55:33.933Z,9.70
2023-02-17T01:58:05.950Z,9.70
2023-02-17T02:00:34.287Z,9.70
2023-02-17T02:03:02.539Z,9.60
2023-02-17T02:05:29.913Z,9.60
2023-02-17T02:07:57.199Z,9.50
2023-02-17T02:10:24.267Z,9.50
2023-02-17T02:12:51.031Z,9.50
2023-02-17T02:15:20.820Z,9.50
2023-02-17T02:18:31.732Z,9.50
2023-02-17T02:20:58.526Z,9.50
2023-02-17T02:23:50.276Z,9.40
2023-02-17T02:26:41.738Z,9.30
2023-02-17T02:29:26.896Z,9.30
2023-02-17T02:32:31.205Z,9.30
2023-02-17T02:35:08.973Z,9.30
2023-02-17T02:37:57.159Z,9.30
2023-02-17T02:40:28.758Z,9.40
2023-02-17T02:42:56.995Z,9.40
2023-02-17T02:45:24.422Z,9.40
2023-02-17T02:47:53.778Z,9.30
2023-02-17T02:50:35.124Z,9.20
2023-02-17T02:53:28.043Z,9.10
2023-02-17T02:56:20.787Z,9.10
2023-02-17T02:59:13.186Z,9.10
2023-02-17T03:15:59.158Z,9.00
2023-02-17T03:18:26.076Z,9.00
2023-02-17T03:20:59.528Z,9.00
2023-02-17T03:23:26.235Z,8.90
2023-02-17T03:25:53.115Z,8.90
2023-02-17T03:28:20.023Z,8.90
2023-02-17T03:30:47.592Z,8.90
2023-02-17T03:33:14.319Z,8.90
2023-02-17T03:35:41.186Z,9.00
2023-02-17T03:38:08.274Z,9.00
2023-02-17T03:40:35.082Z,9.00
2023-02-17T03:43:01.777Z,9.00
2023-02-17T03:45:28.478Z,9.10
2023-02-17T03:47:55.248Z,9.10
2023-02-17T03:50:21.957Z,9.10
2023-02-17T03:52:48.690Z,9.20
2023-02-17T03:55:15.531Z,9.20
2023-02-17T03:57:42.252Z,9.10
2023-02-17T04:00:09.737Z,9.10
2023-02-17T04:02:44.117Z,9.10
2023-02-17T04:05:11.092Z,9.10
2023-02-17T04:07:38.144Z,9.10
2023-02-17T04:10:07.709Z,9.10
2023-02-17T04:12:35.723Z,9.10
2023-02-17T04:15:02.502Z,9.10
2023-02-17T04:17:29.358Z,9.10
2023-02-17T04:19:56.155Z,9.10
2023-02-17T04:22:22.902Z,9.00
2023-02-17T04:24:49.682Z,9.10
2023-02-17T04:27:16.519Z,9.10
2023-02-17T04:29:43.382Z,9.10
2023-02-17T04:32:10.223Z,9.20
2023-02-17T04:34:37.128Z,9.20
2023-02-17T04:37:03.919Z,9.20
2023-02-17T04:39:30.682Z,9.20
2023-02-17T04:41:57.494Z,9.20
2023-02-17T04:44:24.185Z,9.20
2023-02-17T04:46:50.993Z,9.30
2023-02-17T04:49:17.745Z,9.30
2023-02-17T04:51:44.430Z,9.20
2023-02-17T04:54:11.174Z,9.20
2023-02-17T04:56:37.922Z,9.20
2023-02-17T04:59:04.604Z,9.20
2023-02-17T05:01:31.319Z,9.20
2023-02-17T05:03:57.996Z,9.20
2023-02-17T05:06:24.730Z,9.20
2023-02-17T05:08:53.675Z,9.20
2023-02-17T05:11:20.607Z,9.20
2023-02-17T05:13:47.277Z,9.30
2023-02-17T05:16:14.243Z,9.20
2023-02-17T05:18:41.015Z,9.20
2023-02-17T05:21:08.052Z,9.30
2023-02-17T05:23:41.026Z,9.20
2023-02-17T05:26:08.918Z,9.20
2023-02-17T05:28:37.077Z,9.10
2023-02-17T05:31:04.272Z,9.00
2023-02-17T05:33:31.194Z,9.00
2023-02-17T05:36:08.370Z,9.00
2023-02-17T05:38:37.360Z,9.00
2023-02-17T05:41:05.069Z,9.00
2023-02-17T05:43:32.163Z,9.00
2023-02-17T05:46:06.052Z,8.90
2023-02-17T05:48:33.894Z,9.00
2023-02-17T05:51:01.034Z,9.00
2023-02-17T05:53:27.724Z,9.00
2023-02-17T05:55:54.656Z,9.00
2023-02-17T05:58:22.000Z,9.00
2023-02-17T06:00:49.053Z,8.90
2023-02-17T06:03:15.978Z,9.00
2023-02-17T06:05:44.590Z,9.00
2023-02-17T06:08:14.510Z,9.10
2023-02-17T06:10:46.552Z,9.00
2023-02-17T06:13:13.806Z,9.00
2023-02-17T06:15:43.230Z,9.10
2023-02-17T06:18:10.033Z,9.10
2023-02-17T06:20:37.292Z,9.10
2023-02-17T06:23:04.067Z,9.10
2023-02-17T06:25:31.333Z,9.10
2023-02-17T06:27:58.012Z,9.10
2023-02-17T06:30:24.856Z,9.10
2023-02-17T06:32:51.766Z,9.10
2023-02-17T06:35:18.615Z,9.20
2023-02-17T06:37:45.434Z,9.20
2023-02-17T06:40:13.084Z,9.20
2023-02-17T06:42:39.853Z,9.20
2023-02-17T06:45:07.087Z,9.20
2023-02-17T06:47:34.677Z,9.20
2023-02-17T06:50:01.653Z,9.30
2023-02-17T06:52:28.845Z,9.30
2023-02-17T06:54:55.549Z,9.30
2023-02-17T06:57:22.389Z,9.40
2023-02-17T06:59:49.105Z,9.40
2023-02-17T07:02:16.021Z,9.40
2023-02-17T07:04:43.414Z,9.40
2023-02-17T07:07:11.118Z,9.40
2023-02-17T07:09:38.620Z,9.50
2023-02-17T07:12:06.492Z,9.50
2023-02-17T07:14:34.673Z,9.60
2023-02-17T07:17:01.827Z,9.60
2023-02-17T07:19:28.874Z,9.60
2023-02-17T07:21:55.793Z,9.60
2023-02-17T07:24:22.633Z,9.60
2023-02-17T07:26:49.647Z,9.60
2023-02-17T07:29:16.372Z,9.60
2023-02-17T07:31:43.328Z,9.70
2023-02-17T07:34:10.153Z,9.70
2023-02-17T07:36:36.887Z,9.70
2023-02-17T07:39:04.314Z,9.60
2023-02-17T07:41:33.500Z,9.70
2023-02-17T07:44:08.222Z,9.70
2023-02-17T07:46:35.345Z,9.60
2023-02-17T07:49:02.089Z,9.60
2023-02-17T07:51:28.788Z,9.70
2023-02-17T07:53:55.505Z,9.60
2023-02-17T07:56:23.261Z,9.70
2023-02-17T07:58:50.833Z,9.60
2023-02-17T08:01:23.936Z,9.70
2023-02-17T08:03:51.966Z,9.70
2023-02-17T08:06:24.196Z,9.70
2023-02-17T08:09:10.561Z,9.70
2023-02-17T08:11:56.411Z,9.70
2023-02-17T08:14:24.926Z,9.70
2023-02-17T08:16:51.778Z,9.80
2023-02-17T08:19:18.659Z,9.80
2023-02-17T08:21:45.969Z,9.80
2023-02-17T08:24:13.210Z,9.80
2023-02-17T08:26:40.199Z,9.90
2023-02-17T08:29:06.902Z,9.90
2023-02-17T08:31:35.659Z,9.90
2023-02-17T08:34:05.171Z,9.90
2023-02-17T08:36:32.247Z,10.00
2023-02-17T08:38:59.663Z,10.00
2023-02-17T08:41:29.753Z,10.10
2023-02-17T08:43:57.723Z,10.10
2023-02-17T08:46:24.716Z,10.10
2023-02-17T08:48:51.942Z,10.20
2023-02-17T08:51:27.886Z,10.20
2023-02-17T08:53:57.765Z,10.20
2023-02-17T08:56:25.989Z,10.20
2023-02-17T08:58:53.579Z,10.20
2023-02-17T09:01:21.554Z,10.30
2023-02-17T09:03:50.454Z,10.30
2023-02-17T09:06:17.794Z,10.40
2023-02-17T09:08:45.141Z,10.50
2023-02-17T09:11:15.378Z,10.50
2023-02-17T09:13:42.201Z,10.50
2023-02-17T09:16:09.651Z,10.60
2023-02-17T09:18:36.866Z,10.70
2023-02-17T09:21:12.553Z,10.80
2023-02-17T09:23:40.654Z,10.80
2023-02-17T09:26:10.931Z,10.80
2023-02-17T09:28:38.452Z,10.80
2023-02-17T09:31:20.464Z,10.80
2023-02-17T09:33:48.308Z,10.90
2023-02-17T09:36:20.858Z,10.80
2023-02-17T09:38:48.285Z,10.80
2023-02-17T09:41:14.969Z,10.80
2023-02-17T09:43:42.105Z,10.90
2023-02-17T09:46:34.870Z,10.80
2023-02-17T09:49:07.888Z,10.90
2023-02-17T09:51:35.911Z,10.90
2023-02-17T09:54:13.152Z,10.90
2023-02-17T09:56:43.167Z,10.90
2023-02-17T09:59:25.706Z,11.00
2023-02-17T10:01:53.877Z,11.00
2023-02-17T10:04:28.050Z,11.00
2023-02-17T10:07:05.618Z,11.00
2023-02-17T10:09:37.596Z,11.10
2023-02-17T10:12:14.247Z,11.10
2023-02-17T10:14:49.744Z,11.00
2023-02-17T10:17:31.955Z,11.00
2023-02-17T10:20:15.996Z,11.10
2023-02-17T10:22:52.080Z,11.20
2023-02-17T10:25:30.914Z,11.10
2023-02-17T10:28:10.781Z,11.20
2023-02-17T10:30:58.804Z,11.20
2023-02-17T10:33:38.581Z,11.30
2023-02-17T10:36:52.042Z,11.40
2023-02-17T10:39:37.206Z,11.40
2023-02-17T10:42:05.107Z,11.40
2023-02-17T10:44:36.653Z,11.50
2023-02-17T10:47:05.064Z,11.50
2023-02-17T10:49:36.156Z,11.50
2023-02-17T10:52:18.120Z,11.50
2023-02-17T10:55:23.191Z,11.40
2023-02-17T10:57:58.780Z,11.40
2023-02-17T11:00:26.771Z,11.40
2023-02-17T11:02:53.805Z,11.30
2023-02-17T11:05:29.471Z,11.30
2023-02-17T11:08:02.878Z,11.30
2023-02-17T11:10:36.555Z,11.30
2023-02-17T11:13:19.079Z,11.40
2023-02-17T11:15:47.603Z,11.40
2023-02-17T11:18:26.120Z,11.50
2023-02-17T11:21:07.309Z,11.50
2023-02-17T11:23:35.436Z,11.60
2023-02-17T11:26:10.616Z,11.70
2023-02-17T11:28:37.769Z,11.80
2023-02-17T11:31:05.048Z,11.70
2023-02-17T11:33:39.565Z,11.70
2023-02-17T11:36:10.582Z,11.70
2023-02-17T11:38:40.405Z,11.80
2023-02-17T11:41:08.023Z,11.80
2023-02-17T11:43:36.202Z,11.70
2023-02-17T11:46:23.617Z,11.70
2023-02-17T11:49:32.169Z,11.50
2023-02-17T11:52:17.964Z,11.60
2023-02-17T11:55:10.918Z,11.60
2023-02-17T11:57:45.780Z,11.50
2023-02-17T12:00:20.172Z,11.50
2023-02-17T12:03:14.611Z,11.50
2023-02-17T12:05:59.381Z,11.50
2023-02-17T12:08:46.395Z,11.50
2023-02-17T12:11:37.545Z,11.60
2023-02-17T12:14:31.137Z,11.60
2023-02-17T12:17:06.329Z,11.70
2023-02-17T12:19:50.079Z,11.70
2023-02-17T12:22:19.887Z,11.70
2023-02-17T12:25:03.660Z,11.80
2023-02-17T12:27:45.865Z,11.80
2023-02-17T12:30:39.267Z,11.90
2023-02-17T12:33:20.020Z,11.90
2023-02-17T12:36:01.213Z,12.00
2023-02-17T12:38:46.550Z,12.00
2023-02-17T12:41:32.655Z,12.10
2023-02-17T12:44:17.561Z,12.20
2023-02-17T12:46:47.342Z,12.20
2023-02-17T12:49:44.958Z,12.40
2023-02-17T12:52:23.441Z,12.40
2023-02-17T12:54:58.029Z,12.40
2023-02-17T12:57:46.096Z,12.40
2023-02-17T13:00:23.959Z,12.40
2023-02-17T13:02:50.927Z,12.40
2023-02-17T13:05:40.708Z,12.50
2023-02-17T13:08:34.857Z,12.50
2023-02-17T13:11:07.643Z,12.50
2023-02-17T13:13:34.929Z,12.70
2023-02-17T13:16:03.078Z,12.70
2023-02-17T13:18:33.395Z,12.70
2023-02-17T13:21:02.924Z,12.70
2023-02-17T13:23:36.904Z,12.70
2023-02-17T13:26:32.651Z,12.70
2023-02-17T13:29:17.397Z,12.70
2023-02-17T13:31:51.105Z,12.60
2023-02-17T13:34:58.731Z,12.50
2023-02-17T13:37:39.141Z,12.50
2023-02-17T13:40:18.077Z,12.50
2023-02-17T13:42:50.046Z,12.50
2023-02-17T13:45:40.644Z,12.50
2023-02-17T13:48:21.390Z,12.50
2023-02-17T13:50:51.259Z,12.50
2023-02-17T13:53:33.001Z,12.50
2023-02-17T13:56:23.161Z,12.60
2023-02-17T13:58:50.228Z,12.60
2023-02-17T14:01:21.416Z,12.70
2023-02-17T14:03:50.923Z,12.70
2023-02-17T14:06:37.915Z,12.70
2023-02-17T14:09:25.751Z,12.70
2023-02-17T14:11:53.714Z,12.70
2023-02-17T14:14:24.237Z,12.70
2023-02-17T14:17:06.139Z,12.70
2023-02-17T14:19:47.675Z,12.80
2023-02-17T14:22:28.680Z,12.80
2023-02-17T14:25:04.991Z,12.80
2023-02-17T14:27:46.775Z,12.80
2023-02-17T14:30:36.083Z,12.90
2023-02-17T14:33:21.278Z,12.80
2023-02-17T14:35:56.255Z,12.80
2023-02-17T14:38:32.213Z,12.80
2023-02-17T14:41:01.130Z,12.90
2023-02-17T14:43:28.485Z,12.90
2023-02-17T14:45:55.654Z,13.00
2023-02-17T14:48:22.602Z,13.00
2023-02-17T14:50:49.734Z,13.00
2023-02-17T14:53:33.238Z,13.10
2023-02-17T14:56:07.932Z,13.10
2023-02-17T14:58:35.188Z,13.10
2023-02-17T15:01:02.367Z,13.10
2023-02-17T15:03:29.198Z,13.10
2023-02-17T15:05:56.042Z,13.10
2023-02-17T15:08:33.788Z,13.10
2023-02-17T15:11:01.120Z,13.10
2023-02-17T15:13:28.044Z,13.10
2023-02-17T15:15:54.985Z,13.10
2023-02-17T15:18:22.035Z,13.00
2023-02-17T15:20:51.334Z,13.10
2023-02-17T15:23:20.803Z,13.10
2023-02-17T15:25:48.661Z,13.10
2023-02-17T15:28:19.886Z,13.10
2023-02-17T15:30:54.652Z,13.10
2023-02-17T15:33:23.354Z,13.20
2023-02-17T15:35:53.544Z,13.20
2023-02-17T15:38:20.847Z,13.20
2023-02-17T15:40:47.697Z,13.20
2023-02-17T15:43:20.521Z,13.20
2023-02-17T15:45:47.828Z,13.30
2023-02-17T15:48:23.796Z,13.30
2023-02-17T15:50:51.016Z,13.30
2023-02-17T15:53:17.921Z,13.30
2023-02-17T15:55:45.080Z,13.20
2023-02-17T15:58:17.446Z,13.30
2023-02-17T16:00:48.636Z,13.30
2023-02-17T16:03:16.031Z,13.30
2023-02-17T16:05:44.664Z,13.30
2023-02-17T16:08:11.888Z,13.30
2023-02-17T16:10:40.456Z,13.30
2023-02-17T16:13:07.988Z,13.30
2023-02-17T16:15:37.539Z,13.30
2023-02-17T16:18:04.373Z,13.30
2023-02-17T16:20:34.660Z,13.30
2023-02-17T16:23:02.436Z,13.30
2023-02-17T16:25:29.867Z,13.20
2023-02-17T16:27:57.155Z,13.20
2023-02-17T16:30:32.200Z,13.20
2023-02-17T16:32:59.349Z,13.20
2023-02-17T16:35:28.669Z,13.20
2023-02-17T16:37:57.122Z,13.20
2023-02-17T16:40:26.711Z,13.20
2023-02-17T16:42:53.575Z,13.20
2023-02-17T16:45:23.437Z,13.20
2023-02-17T16:47:55.505Z,13.20
2023-02-17T16:50:30.041Z,13.20
2023-02-17T16:53:01.195Z,13.30
2023-02-17T16:55:30.997Z,13.30
2023-02-17T16:57:58.125Z,13.30
2023-02-17T17:00:29.600Z,13.30
2023-02-17T17:02:57.157Z,13.30
2023-02-17T17:05:25.720Z,13.30
2023-02-17T17:07:52.687Z,13.30
2023-02-17T17:10:23.232Z,13.30
2023-02-17T17:12:50.070Z,13.30
2023-02-17T17:15:18.013Z,13.40
2023-02-17T17:17:50.629Z,13.30
2023-02-17T17:20:20.305Z,13.30
2023-02-17T17:22:47.007Z,13.30
2023-02-17T17:25:14.898Z,13.30
2023-02-17T17:27:42.045Z,13.20
2023-02-17T17:30:15.130Z,13.10
2023-02-17T17:32:41.926Z,13.10
2023-02-17T17:35:08.689Z,13.10
2023-02-17T17:37:35.408Z,13.10
2023-02-17T17:40:02.150Z,13.20
2023-02-17T17:42:29.079Z,13.20
2023-02-17T17:44:55.769Z,13.20
2023-02-17T17:47:29.993Z,13.20
2023-02-17T17:49:57.366Z,13.10
2023-02-17T17:52:24.259Z,13.10
2023-02-17T17:54:51.174Z,13.10
2023-02-17T17:57:18.053Z,13.10
2023-02-17T17:59:44.827Z,13.10
2023-02-17T18:02:11.607Z,13.10
2023-02-17T18:04:38.314Z,13.20
2023-02-17T18:07:05.327Z,13.20
2023-02-17T18:09:36.279Z,13.20
2023-02-17T18:12:08.337Z,13.20
2023-02-17T18:14:37.523Z,13.20
2023-02-17T18:17:04.849Z,13.20
2023-02-17T18:19:32.239Z,13.20
2023-02-17T18:21:58.946Z,13.20
2023-02-17T18:24:25.630Z,13.20
2023-02-17T18:26:52.363Z,13.20
2023-02-17T18:29:20.022Z,13.10
2023-02-17T18:31:47.139Z,13.10
2023-02-17T18:34:14.224Z,13.10
2023-02-17T18:36:41.028Z,13.00
2023-02-17T18:39:07.736Z,12.90
2023-02-17T18:41:35.066Z,12.80
2023-02-17T18:44:04.699Z,12.80
2023-02-17T18:46:33.205Z,12.70
2023-02-17T18:49:00.503Z,12.70
2023-02-17T18:51:27.662Z,12.70
2023-02-17T18:53:57.383Z,12.70
2023-02-17T18:56:29.567Z,12.70
2023-02-17T18:58:57.066Z,12.60
2023-02-17T19:01:28.534Z,12.60
2023-02-17T19:03:55.860Z,12.70
2023-02-17T19:06:25.310Z,12.70
2023-02-17T19:08:52.765Z,12.70
2023-02-17T19:11:21.046Z,12.70
2023-02-17T19:13:48.199Z,12.80
2023-02-17T19:16:28.130Z,12.80
2023-02-17T19:18:55.887Z,12.80
2023-02-17T19:21:23.305Z,12.80
2023-02-17T19:23:50.900Z,12.80
2023-02-17T19:26:18.553Z,12.70
2023-02-17T19:28:45.690Z,12.80
2023-02-17T19:31:15.508Z,12.80
2023-02-17T19:33:44.303Z,12.80
2023-02-17T19:36:16.595Z,12.90
2023-02-17T19:38:43.809Z,12.80
2023-02-17T19:41:11.646Z,12.90
2023-02-17T19:43:39.412Z,12.80
2023-02-17T19:46:06.642Z,12.80
2023-02-17T19:48:34.462Z,12.90
2023-02-17T19:51:04.613Z,12.90
2023-02-17T19:53:33.138Z,12.80
2023-02-17T19:56:15.033Z,12.80
2023-02-17T19:58:43.147Z,12.80
2023-02-17T20:01:17.724Z,12.70
2023-02-17T20:03:44.771Z,12.70
2023-02-17T20:06:17.125Z,12.70
2023-02-17T20:08:44.951Z,12.60
2023-02-17T20:11:12.266Z,12.60
2023-02-17T20:13:45.799Z,12.70
2023-02-17T20:16:15.604Z,12.60
2023-02-17T20:18:47.743Z,12.50
2023-02-17T20:21:21.530Z,12.60
2023-02-17T20:23:48.835Z,12.60
2023-02-17T20:26:19.745Z,12.70
2023-02-17T20:28:46.548Z,12.70
2023-02-17T20:31:14.302Z,12.60
2023-02-17T20:33:41.542Z,12.60
2023-02-17T20:36:09.817Z,12.60
2023-02-17T20:38:37.748Z,12.50
2023-02-17T20:41:06.626Z,12.50
2023-02-17T20:43:33.961Z,12.30
2023-02-17T20:46:00.789Z,12.30
2023-02-17T20:48:27.637Z,12.20
2023-02-17T20:50:58.626Z,12.10
2023-02-17T20:53:26.155Z,12.10
2023-02-17T20:55:53.237Z,12.10
2023-02-17T20:58:20.203Z,12.00
2023-02-17T21:00:47.530Z,12.00
2023-02-17T21:03:14.536Z,12.00
2023-02-17T21:05:41.745Z,12.00
2023-02-17T21:08:09.020Z,12.00
2023-02-17T21:10:35.786Z,12.00
2023-02-17T21:13:02.988Z,12.00
2023-02-17T21:15:29.817Z,12.00
2023-02-17T21:17:56.477Z,12.00
2023-02-17T21:20:24.393Z,12.00
2023-02-17T21:22:51.236Z,12.00
2023-02-17T21:25:17.907Z,11.90
2023-02-17T21:27:44.578Z,11.90
2023-02-17T21:30:12.635Z,11.80
2023-02-17T21:32:39.487Z,11.90
2023-02-17T21:35:08.189Z,11.80
2023-02-17T21:37:35.132Z,11.70
2023-02-17T21:40:01.833Z,11.70
2023-02-17T21:42:47.256Z,11.60
2023-02-17T21:45:14.044Z,11.50
2023-02-17T21:47:40.703Z,11.50
2023-02-17T21:50:07.850Z,11.50
2023-02-17T21:52:34.520Z,11.40
2023-02-17T21:55:01.627Z,11.40
2023-02-17T21:57:28.482Z,11.40
2023-02-17T21:59:55.245Z,11.40
2023-02-17T22:02:22.024Z,11.40
2023-02-17T22:04:48.814Z,11.40
2023-02-17T22:07:15.531Z,11.40
2023-02-17T22:09:42.176Z,11.30
2023-02-17T22:12:08.905Z,11.40
2023-02-17T22:14:35.689Z,11.40
2023-02-17T22:17:02.607Z,11.40
2023-02-17T22:19:31.399Z,11.50
2023-02-17T22:21:58.372Z,11.40
2023-02-17T22:24:27.105Z,11.50
2023-02-17T22:26:54.471Z,11.40
2023-02-17T22:29:21.308Z,11.40
2023-02-17T22:31:50.422Z,11.40
2023-02-17T22:34:17.285Z,11.40
2023-02-17T22:36:44.063Z,11.40
2023-02-17T22:39:10.894Z,11.30
2023-02-17T22:41:39.293Z,11.40
2023-02-17T22:44:06.436Z,11.40
2023-02-17T22:46:33.500Z,11.40
2023-02-17T22:49:00.604Z,11.40
2023-02-17T22:51:31.978Z,11.40
2023-02-17T22:54:00.654Z,11.40
2023-02-17T22:56:28.048Z,11.40
2023-02-17T22:59:00.726Z,11.40
2023-02-17T23:01:29.269Z,11.40
2023-02-17T23:03:55.925Z,11.50
2023-02-17T23:06:29.496Z,11.40
2023-02-17T23:08:57.068Z,11.50
2023-02-17T23:11:45.819Z,11.50
2023-02-17T23:14:15.094Z,11.60
2023-02-17T23:16:42.229Z,11.60
2023-02-17T23:19:11.961Z,11.60
2023-02-17T23:21:43.406Z,11.60
2023-02-17T23:24:10.275Z,11.60
2023-02-17T23:26:36.983Z,11.60
2023-02-17T23:29:03.983Z,11.60
2023-02-17T23:31:30.775Z,11.60
2023-02-17T23:33:57.523Z,11.70
2023-02-17T23:36:24.192Z,11.70
2023-02-17T23:38:50.840Z,11.70
2023-02-17T23:41:17.500Z,11.70
2023-02-17T23:43:44.239Z,11.70
2023-02-17T23:46:11.282Z,11.70
2023-02-17T23:48:38.161Z,11.70
2023-02-17T23:51:05.859Z,11.70
2023-02-17T23:53:33.997Z,11.70
2023-02-17T23:56:25.885Z,11.70
2023-02-17T23:58:52.674Z,11.70
